createdAt,value
2022-08-03T00:01:49.839Z,22.70
2022-08-03T00:04:17.671Z,22.70
2022-08-03T00:06:44.459Z,22.70
2022-08-03T00:09:11.700Z,22.60
2022-08-03T00:11:38.619Z,22.60
2022-08-03T00:14:06.458Z,22.60
2022-08-03T00:16:33.390Z,22.50
2022-08-03T00:19:00.607Z,22.40
2022-08-03T00:21:28.493Z,22.40
2022-08-03T00:23:55.304Z,22.40
2022-08-03T00:26:22.033Z,22.40
2022-08-03T00:28:49.639Z,22.40
2022-08-03T00:31:16.665Z,22.30
2022-08-03T00:33:57.925Z,22.30
2022-08-03T00:36:25.834Z,22.30
2022-08-03T00:38:52.515Z,22.30
2022-08-03T00:41:19.249Z,22.20
2022-08-03T00:43:47.341Z,22.20
2022-08-03T00:46:19.005Z,22.20
2022-08-03T00:48:48.470Z,22.20
2022-08-03T00:51:15.532Z,22.20
2022-08-03T00:53:42.828Z,22.20
2022-08-03T00:56:09.616Z,22.20
2022-08-03T00:58:36.820Z,22.10
2022-08-03T01:01:06.912Z,22.10
2022-08-03T01:03:33.764Z,22.10
2022-08-03T01:06:19.929Z,22.10
2022-08-03T01:08:46.630Z,22.10
2022-08-03T01:11:23.950Z,22.10
2022-08-03T01:14:20.845Z,22.00
2022-08-03T01:17:13.270Z,22.00
2022-08-03T01:19:50.550Z,21.90
2022-08-03T01:22:36.127Z,21.90
2022-08-03T01:25:40.632Z,21.80
2022-08-03T01:28:42.087Z,21.80
2022-08-03T01:31:11.537Z,21.80
2022-08-03T01:33:45.374Z,21.80
2022-08-03T01:36:19.387Z,21.80
2022-08-03T01:38:55.145Z,21.80
2022-08-03T01:41:26.764Z,21.70
2022-08-03T01:44:29.547Z,21.70
2022-08-03T01:46:47.561Z,21.70
2022-08-03T01:49:17.340Z,21.70
2022-08-03T01:52:03.014Z,21.70
2022-08-03T01:54:35.390Z,21.70
2022-08-03T01:57:03.732Z,21.60
2022-08-03T01:59:34.503Z,21.60
2022-08-03T02:02:16.013Z,21.60
2022-08-03T02:05:01.506Z,21.60
2022-08-03T02:07:30.183Z,21.60
2022-08-03T02:09:58.287Z,21.60
2022-08-03T02:12:27.999Z,21.50
2022-08-03T02:14:56.997Z,21.50
2022-08-03T02:17:39.832Z,21.50
2022-08-03T02:20:12.585Z,21.40
2022-08-03T02:22:44.452Z,21.40
2022-08-03T02:25:13.419Z,21.40
2022-08-03T02:27:47.491Z,21.30
2022-08-03T02:30:14.700Z,21.30
2022-08-03T02:32:46.976Z,21.30
2022-08-03T02:35:16.908Z,21.30
2022-08-03T02:37:56.490Z,21.30
2022-08-03T02:40:24.117Z,21.30
2022-08-03T02:42:54.984Z,21.20
2022-08-03T02:45:24.265Z,21.20
2022-08-03T02:47:55.500Z,21.20
2022-08-03T02:50:24.393Z,21.20
2022-08-03T02:52:52.699Z,21.20
2022-08-03T02:55:21.862Z,21.20
2022-08-03T02:57:50.136Z,21.20
2022-08-03T03:00:27.084Z,21.20
2022-08-03T03:02:57.338Z,21.20
2022-08-03T03:05:56.194Z,21.10
2022-08-03T03:08:20.604Z,21.10
2022-08-03T03:10:53.186Z,21.00
2022-08-03T03:13:23.325Z,21.00
2022-08-03T03:15:50.761Z,21.00
2022-08-03T03:18:22.120Z,20.90
2022-08-03T03:20:51.440Z,20.90
2022-08-03T03:23:19.197Z,20.90
2022-08-03T03:25:46.528Z,20.80
2022-08-03T03:28:13.540Z,20.90
2022-08-03T03:30:40.538Z,20.80
2022-08-03T03:33:07.526Z,20.80
2022-08-03T03:35:37.133Z,20.90
2022-08-03T03:38:07.020Z,20.80
2022-08-03T03:40:36.340Z,20.80
2022-08-03T03:43:03.545Z,20.80
2022-08-03T03:45:31.557Z,20.80
2022-08-03T03:48:01.692Z,20.70
2022-08-03T03:50:29.922Z,20.70
2022-08-03T03:52:56.626Z,20.70
2022-08-03T03:55:23.487Z,20.70
2022-08-03T03:57:50.184Z,20.60
2022-08-03T04:00:18.568Z,20.60
2022-08-03T04:02:46.396Z,20.50
2022-08-03T04:05:32.823Z,20.60
2022-08-03T04:08:22.179Z,20.60
2022-08-03T04:11:15.862Z,20.60
2022-08-03T04:13:54.950Z,20.60
2022-08-03T04:16:26.451Z,20.60
2022-08-03T04:18:58.921Z,20.70
2022-08-03T04:21:26.595Z,20.70
2022-08-03T04:23:57.975Z,20.70
2022-08-03T04:26:29.792Z,20.70
2022-08-03T04:28:58.723Z,20.70
2022-08-03T04:31:27.159Z,20.70
2022-08-03T04:33:55.354Z,20.70
2022-08-03T04:36:25.959Z,20.80
2022-08-03T04:39:02.687Z,20.80
2022-08-03T04:41:30.983Z,20.80
2022-08-03T04:44:00.305Z,20.80
2022-08-03T04:46:30.576Z,20.80
2022-08-03T04:48:58.432Z,20.90
2022-08-03T04:51:25.903Z,20.90
2022-08-03T04:53:52.667Z,21.00
2022-08-03T04:56:19.828Z,21.10
2022-08-03T04:58:46.517Z,21.30
2022-08-03T05:01:13.400Z,21.60
2022-08-03T05:03:40.455Z,21.80
2022-08-03T05:06:11.015Z,22.10
2022-08-03T05:08:46.448Z,22.30
2022-08-03T05:11:16.229Z,22.70
2022-08-03T05:13:43.985Z,23.00
2022-08-03T05:16:11.965Z,23.20
2022-08-03T05:18:38.731Z,23.40
2022-08-03T05:21:08.393Z,23.60
2022-08-03T05:23:35.527Z,24.00
2022-08-03T05:26:02.252Z,24.20
2022-08-03T05:28:29.441Z,24.30
2022-08-03T05:30:56.552Z,24.50
2022-08-03T05:33:23.258Z,24.70
2022-08-03T05:36:02.518Z,24.80
2022-08-03T05:38:34.657Z,24.90
2022-08-03T05:41:22.614Z,25.20
2022-08-03T05:43:51.571Z,25.40
2022-08-03T05:46:18.404Z,25.60
2022-08-03T05:48:45.139Z,25.70
2022-08-03T05:51:12.365Z,25.70
2022-08-03T05:53:41.001Z,25.70
2022-08-03T05:56:14.172Z,25.80
2022-08-03T05:58:48.781Z,26.00
2022-08-03T06:01:16.966Z,26.20
2022-08-03T06:03:44.590Z,26.30
2022-08-03T06:06:12.045Z,26.50
2022-08-03T06:08:39.954Z,26.60
2022-08-03T06:11:07.274Z,26.70
2022-08-03T06:13:33.999Z,26.80
2022-08-03T06:16:00.772Z,26.80
2022-08-03T06:18:27.523Z,26.70
2022-08-03T06:20:55.051Z,26.70
2022-08-03T06:23:22.161Z,26.60
2022-08-03T06:25:49.325Z,26.60
2022-08-03T06:28:51.404Z,26.50
2022-08-03T06:31:04.356Z,26.40
2022-08-03T06:34:31.477Z,26.40
2022-08-03T06:36:20.627Z,26.30
2022-08-03T06:38:47.262Z,26.20
2022-08-03T06:41:13.947Z,26.20
2022-08-03T06:44:03.173Z,26.10
2022-08-03T06:46:27.483Z,26.00
2022-08-03T06:48:55.578Z,26.00
2022-08-03T06:51:23.587Z,26.00
2022-08-03T06:54:10.811Z,26.00
2022-08-03T06:56:37.719Z,26.00
2022-08-03T06:59:04.575Z,25.90
2022-08-03T07:01:31.430Z,25.90
2022-08-03T07:03:58.300Z,25.90
2022-08-03T07:06:24.980Z,25.90
2022-08-03T07:08:54.467Z,25.90
2022-08-03T07:11:23.415Z,26.00
2022-08-03T07:13:50.134Z,25.90
2022-08-03T07:16:16.904Z,26.00
2022-08-03T07:18:44.605Z,26.00
2022-08-03T07:21:12.794Z,26.00
2022-08-03T07:23:39.457Z,26.00
2022-08-03T07:26:06.281Z,26.00
2022-08-03T07:28:33.139Z,26.00
2022-08-03T07:31:00.017Z,26.00
2022-08-03T07:33:26.847Z,26.00
2022-08-03T07:35:53.623Z,26.10
2022-08-03T07:38:21.234Z,26.20
2022-08-03T07:40:48.270Z,26.20
2022-08-03T07:43:14.966Z,26.20
2022-08-03T07:45:41.740Z,26.20
2022-08-03T07:48:12.238Z,26.20
2022-08-03T07:50:39.338Z,26.20
2022-08-03T07:53:06.163Z,26.20
2022-08-03T07:55:33.021Z,26.10
2022-08-03T07:58:21.945Z,26.10
2022-08-03T08:00:52.950Z,26.20
2022-08-03T08:03:21.830Z,26.30
2022-08-03T08:05:49.060Z,26.30
2022-08-03T08:08:17.030Z,26.30
2022-08-03T08:10:58.506Z,26.30
2022-08-03T08:13:25.585Z,26.40
2022-08-03T08:15:52.364Z,26.40
2022-08-03T08:18:19.233Z,26.50
2022-08-03T08:20:46.151Z,26.60
2022-08-03T08:23:38.002Z,26.70
2022-08-03T08:25:59.520Z,26.70
2022-08-03T08:28:32.496Z,26.90
2022-08-03T08:31:01.561Z,27.00
2022-08-03T08:33:42.162Z,27.00
2022-08-03T08:36:15.752Z,27.20
2022-08-03T08:38:44.800Z,27.30
2022-08-03T08:41:12.987Z,27.40
2022-08-03T08:43:40.234Z,27.50
2022-08-03T08:46:08.568Z,27.50
2022-08-03T08:48:39.375Z,27.40
2022-08-03T08:51:07.143Z,27.40
2022-08-03T08:53:37.236Z,27.50
2022-08-03T08:56:07.180Z,27.60
2022-08-03T08:58:38.710Z,27.60
2022-08-03T09:01:06.260Z,27.60
2022-08-03T09:03:36.490Z,27.60
2022-08-03T09:06:03.880Z,27.70
2022-08-03T09:08:31.973Z,27.70
2022-08-03T09:10:59.282Z,27.70
2022-08-03T09:13:26.234Z,27.80
2022-08-03T09:16:12.060Z,27.80
2022-08-03T09:18:39.775Z,27.90
2022-08-03T09:21:30.183Z,27.90
2022-08-03T09:24:04.218Z,28.00
2022-08-03T09:26:34.154Z,28.10
2022-08-03T09:29:05.997Z,28.10
2022-08-03T09:31:44.397Z,28.10
2022-08-03T09:34:14.586Z,28.20
2022-08-03T09:36:45.941Z,28.30
2022-08-03T09:39:40.904Z,28.40
2022-08-03T09:42:11.511Z,28.50
2022-08-03T09:44:44.579Z,28.40
2022-08-03T09:47:13.327Z,28.50
2022-08-03T09:49:42.136Z,28.60
2022-08-03T09:52:38.310Z,28.70
2022-08-03T09:56:30.720Z,28.80
2022-08-03T09:58:08.530Z,28.90
2022-08-03T10:00:53.974Z,28.90
2022-08-03T10:03:21.589Z,29.00
2022-08-03T10:05:48.354Z,29.10
2022-08-03T10:08:16.979Z,29.30
2022-08-03T10:10:45.400Z,29.40
2022-08-03T10:13:14.099Z,29.40
2022-08-03T10:16:23.901Z,29.30
2022-08-03T10:18:28.198Z,29.20
2022-08-03T10:21:01.946Z,29.10
2022-08-03T10:23:33.572Z,29.10
2022-08-03T10:26:04.363Z,29.20
2022-08-03T10:28:39.190Z,29.30
2022-08-03T10:31:10.097Z,29.30
2022-08-03T10:33:49.863Z,29.30
2022-08-03T10:36:23.754Z,29.30
2022-08-03T10:38:53.089Z,29.40
2022-08-03T10:41:30.910Z,29.50
2022-08-03T10:44:15.559Z,29.60
2022-08-03T10:46:45.408Z,29.70
2022-08-03T10:49:34.788Z,29.70
2022-08-03T10:52:07.558Z,29.60
2022-08-03T10:55:10.810Z,29.60
2022-08-03T10:57:49.994Z,29.60
2022-08-03T11:00:22.591Z,29.60
2022-08-03T11:03:06.915Z,29.60
2022-08-03T11:05:36.289Z,29.60
2022-08-03T11:08:19.380Z,29.60
2022-08-03T11:10:47.129Z,29.70
2022-08-03T11:13:19.589Z,29.70
2022-08-03T11:15:48.999Z,29.70
2022-08-03T11:18:16.370Z,29.70
2022-08-03T11:20:49.066Z,29.70
2022-08-03T11:23:17.360Z,29.70
2022-08-03T11:26:10.333Z,29.70
2022-08-03T11:28:38.865Z,29.70
2022-08-03T11:31:49.866Z,29.70
2022-08-03T11:34:14.763Z,29.70
2022-08-03T11:37:24.619Z,29.70
2022-08-03T11:39:55.302Z,29.70
2022-08-03T11:42:26.200Z,29.80
2022-08-03T11:44:55.008Z,29.90
2022-08-03T11:47:23.977Z,30.00
2022-08-03T11:49:54.006Z,29.90
2022-08-03T11:52:26.990Z,29.90
2022-08-03T11:54:56.579Z,29.90
2022-08-03T11:59:10.817Z,29.90
2022-08-03T12:00:32.892Z,30.00
2022-08-03T12:03:14.232Z,30.00
2022-08-03T12:05:51.193Z,30.00
2022-08-03T12:08:28.361Z,30.00
2022-08-03T12:10:57.136Z,30.10
2022-08-03T12:14:32.953Z,30.10
2022-08-03T12:16:24.712Z,30.10
2022-08-03T12:19:05.363Z,30.20
2022-08-03T12:21:33.638Z,30.20
2022-08-03T12:24:05.195Z,30.20
2022-08-03T12:26:58.794Z,30.10
2022-08-03T12:29:27.722Z,30.10
2022-08-03T12:31:56.059Z,30.10
2022-08-03T12:34:23.834Z,30.20
2022-08-03T12:36:53.037Z,30.20
2022-08-03T12:39:24.652Z,30.20
2022-08-03T12:41:55.200Z,30.30
2022-08-03T12:44:33.120Z,30.30
2022-08-03T12:47:00.759Z,30.30
2022-08-03T12:49:31.519Z,30.30
2022-08-03T12:52:03.927Z,30.40
2022-08-03T12:54:36.093Z,30.40
2022-08-03T12:57:05.801Z,30.50
2022-08-03T12:59:42.541Z,30.50
2022-08-03T13:02:23.684Z,30.50
2022-08-03T13:04:52.828Z,30.50
2022-08-03T13:07:21.016Z,30.50
2022-08-03T13:09:50.283Z,30.50
2022-08-03T13:12:20.951Z,30.60
2022-08-03T13:15:01.249Z,30.60
2022-08-03T13:17:28.128Z,30.60
2022-08-03T13:19:54.969Z,30.50
2022-08-03T13:22:23.766Z,30.70
2022-08-03T13:24:52.352Z,30.70
2022-08-03T13:28:13.892Z,30.70
2022-08-03T13:30:07.887Z,30.70
2022-08-03T13:32:34.938Z,30.70
2022-08-03T13:35:02.727Z,30.70
2022-08-03T13:37:32.715Z,30.70
2022-08-03T13:40:02.980Z,30.70
2022-08-03T13:42:31.758Z,30.70
2022-08-03T13:44:59.518Z,30.70
2022-08-03T13:47:28.691Z,30.70
2022-08-03T13:50:01.780Z,30.70
2022-08-03T13:52:38.392Z,30.80
2022-08-03T13:55:06.918Z,30.80
2022-08-03T13:58:19.094Z,30.80
2022-08-03T14:00:27.280Z,30.80
2022-08-03T14:03:02.857Z,30.80
2022-08-03T14:05:32.784Z,30.80
2022-08-03T14:08:04.434Z,30.80
2022-08-03T14:10:33.688Z,30.80
2022-08-03T14:13:00.578Z,30.80
2022-08-03T14:15:28.528Z,30.80
2022-08-03T14:17:56.423Z,30.80
2022-08-03T14:20:38.110Z,30.90
2022-08-03T14:23:14.786Z,30.90
2022-08-03T14:25:43.482Z,31.00
2022-08-03T14:28:18.632Z,31.00
2022-08-03T14:30:45.925Z,31.00
2022-08-03T14:33:12.614Z,31.10
2022-08-03T14:35:39.314Z,31.10
2022-08-03T14:38:06.034Z,31.20
2022-08-03T14:40:33.081Z,31.30
2022-08-03T14:42:59.899Z,31.30
2022-08-03T14:45:26.591Z,31.30
2022-08-03T14:50:28.786Z,31.30
2022-08-03T14:50:44.467Z,31.30
2022-08-03T14:53:13.951Z,31.30
2022-08-03T14:55:49.985Z,31.40
2022-08-03T14:58:20.894Z,31.40
2022-08-03T15:00:49.792Z,31.60
2022-08-03T15:03:17.638Z,31.70
2022-08-03T15:05:44.921Z,31.80
2022-08-03T15:08:11.603Z,31.80
2022-08-03T15:10:40.674Z,31.90
2022-08-03T15:13:12.585Z,31.90
2022-08-03T15:15:39.799Z,31.90
2022-08-03T15:18:06.810Z,31.90
2022-08-03T15:20:44.511Z,31.90
2022-08-03T15:23:12.932Z,31.90
2022-08-03T15:26:28.330Z,31.90
2022-08-03T15:28:26.493Z,31.90
2022-08-03T15:30:53.299Z,32.00
2022-08-03T15:33:20.202Z,32.00
2022-08-03T15:35:47.416Z,32.10
2022-08-03T15:38:14.459Z,32.10
2022-08-03T15:40:41.513Z,32.10
2022-08-03T15:43:08.319Z,32.10
2022-08-03T15:45:36.628Z,32.10
2022-08-03T15:48:05.230Z,32.10
2022-08-03T15:50:32.557Z,32.10
2022-08-03T15:52:59.347Z,32.00
2022-08-03T15:55:26.040Z,32.00
2022-08-03T15:59:09.240Z,32.00
2022-08-03T16:00:41.608Z,32.00
2022-08-03T16:03:08.349Z,32.00
2022-08-03T16:05:35.487Z,32.00
2022-08-03T16:08:03.586Z,32.00
2022-08-03T16:10:31.542Z,31.90
2022-08-03T16:13:01.145Z,31.90
2022-08-03T16:15:28.006Z,32.00
2022-08-03T16:17:54.847Z,32.00
2022-08-03T16:20:34.429Z,32.10
2022-08-03T16:23:10.752Z,32.10
2022-08-03T16:25:40.212Z,32.20
2022-08-03T16:28:13.074Z,32.20
2022-08-03T16:30:41.974Z,32.20
2022-08-03T16:33:08.852Z,32.20
2022-08-03T16:35:35.719Z,32.30
2022-08-03T16:38:07.824Z,32.30
2022-08-03T16:40:36.749Z,32.30
2022-08-03T16:43:17.865Z,32.30
2022-08-03T16:45:49.956Z,32.50
2022-08-03T16:48:17.781Z,32.50
2022-08-03T16:50:45.357Z,32.70
2022-08-03T16:53:16.580Z,32.80
2022-08-03T16:55:53.365Z,33.00
2022-08-03T16:58:34.825Z,33.30
2022-08-03T17:01:21.667Z,33.60
2022-08-03T17:04:02.816Z,33.80
2022-08-03T17:06:37.054Z,33.90
2022-08-03T17:09:11.693Z,34.00
2022-08-03T17:11:47.093Z,34.30
2022-08-03T17:14:16.637Z,34.60
2022-08-03T17:16:52.663Z,34.90
2022-08-03T17:19:23.251Z,35.20
2022-08-03T17:22:06.285Z,35.60
2022-08-03T17:24:35.669Z,35.70
2022-08-03T17:27:23.104Z,35.80
2022-08-03T17:30:05.393Z,35.80
2022-08-03T17:32:42.240Z,35.80
2022-08-03T17:35:10.375Z,35.70
2022-08-03T17:37:58.515Z,35.70
2022-08-03T17:40:24.283Z,35.70
2022-08-03T17:42:52.930Z,35.70
2022-08-03T17:45:20.528Z,35.60
2022-08-03T17:47:57.414Z,35.40
2022-08-03T17:50:33.159Z,35.10
2022-08-03T17:53:15.583Z,34.70
2022-08-03T17:56:42.669Z,34.30
2022-08-03T17:59:51.643Z,33.90
2022-08-03T18:03:04.648Z,33.50
2022-08-03T18:06:08.989Z,33.20
2022-08-03T18:08:36.402Z,32.80
2022-08-03T18:11:09.702Z,32.50
2022-08-03T18:13:58.278Z,32.40
2022-08-03T18:16:34.623Z,32.20
2022-08-03T18:19:09.236Z,32.10
2022-08-03T18:22:02.831Z,32.00
2022-08-03T18:24:25.655Z,31.80
2022-08-03T18:26:55.726Z,31.70
2022-08-03T18:29:25.386Z,31.70
2022-08-03T18:32:05.334Z,31.60
2022-08-03T18:34:41.165Z,31.50
2022-08-03T18:37:25.466Z,31.50
2022-08-03T18:39:55.662Z,31.30
2022-08-03T18:42:26.499Z,31.20
2022-08-03T18:44:56.419Z,31.10
2022-08-03T18:47:51.619Z,31.00
2022-08-03T18:50:26.712Z,31.00
2022-08-03T18:52:56.929Z,30.80
2022-08-03T18:55:33.469Z,30.80
2022-08-03T18:58:15.970Z,30.70
2022-08-03T19:01:01.325Z,30.60
2022-08-03T19:03:42.808Z,30.50
2022-08-03T19:06:19.853Z,30.50
2022-08-03T19:08:55.566Z,30.40
2022-08-03T19:11:28.903Z,30.30
2022-08-03T19:14:22.239Z,30.30
2022-08-03T19:17:07.298Z,30.20
2022-08-03T19:19:43.470Z,30.00
2022-08-03T19:22:16.079Z,30.00
2022-08-03T19:24:48.986Z,29.90
2022-08-03T19:27:16.307Z,29.80
2022-08-03T19:29:57.931Z,29.80
2022-08-03T19:32:30.956Z,29.70
2022-08-03T19:35:00.863Z,29.60
2022-08-03T19:37:38.164Z,29.50
2022-08-03T19:40:10.433Z,29.40
2022-08-03T19:42:54.578Z,29.40
2022-08-03T19:46:04.863Z,29.40
2022-08-03T19:48:29.615Z,29.30
2022-08-03T19:50:59.164Z,29.20
2022-08-03T19:53:34.607Z,29.20
2022-08-03T19:56:06.083Z,29.10
2022-08-03T19:58:33.880Z,29.10
2022-08-03T20:01:21.588Z,29.00
2022-08-03T20:03:52.868Z,28.90
2022-08-03T20:06:23.741Z,28.90
2022-08-03T20:08:51.589Z,28.90
2022-08-03T20:11:20.054Z,28.80
2022-08-03T20:13:50.722Z,28.70
2022-08-03T20:16:17.771Z,28.70
2022-08-03T20:18:44.854Z,28.70
2022-08-03T20:21:14.783Z,28.60
2022-08-03T20:24:01.993Z,28.60
2022-08-03T20:26:31.707Z,28.50
2022-08-03T20:29:10.072Z,28.40
2022-08-03T20:31:37.513Z,28.40
2022-08-03T20:34:07.009Z,28.30
2022-08-03T20:36:36.345Z,28.30
2022-08-03T20:39:07.493Z,28.10
2022-08-03T20:41:40.008Z,28.10
2022-08-03T20:44:08.753Z,28.10
2022-08-03T20:49:24.146Z,28.00
2022-08-03T20:51:53.620Z,27.90
2022-08-03T20:54:29.555Z,27.90
2022-08-03T20:57:04.087Z,27.80
2022-08-03T20:59:50.226Z,27.80
2022-08-03T21:02:29.882Z,27.70
2022-08-03T21:05:02.901Z,27.70
2022-08-03T21:07:45.950Z,27.60
2022-08-03T21:10:24.820Z,27.60
2022-08-03T21:13:12.284Z,28.00
2022-08-03T21:13:17.143Z,27.50
2022-08-03T21:16:06.860Z,27.50
2022-08-03T21:18:44.323Z,27.40
2022-08-03T21:21:14.553Z,27.40
2022-08-03T21:23:48.909Z,27.40
2022-08-03T21:26:19.620Z,27.30
2022-08-03T21:28:49.889Z,27.30
2022-08-03T21:31:24.812Z,27.30
2022-08-03T21:33:57.703Z,27.20
2022-08-03T21:36:27.629Z,27.20
2022-08-03T21:38:55.765Z,27.10
2022-08-03T21:41:24.717Z,27.00
2022-08-03T21:43:51.626Z,27.00
2022-08-03T21:46:22.653Z,27.00
2022-08-03T21:48:56.358Z,26.90
2022-08-03T21:51:43.584Z,26.80
2022-08-03T21:54:12.275Z,26.70
2022-08-03T21:56:42.475Z,26.70
2022-08-03T21:59:18.176Z,26.70
2022-08-03T22:01:49.004Z,26.70
2022-08-03T22:04:50.375Z,26.60
2022-08-03T22:07:10.447Z,26.60
2022-08-03T22:09:37.425Z,26.60
2022-08-03T22:12:06.375Z,26.50
2022-08-03T22:14:33.880Z,26.50
2022-08-03T22:17:06.484Z,26.50
2022-08-03T22:19:34.567Z,26.40
2022-08-03T22:22:05.947Z,26.40
2022-08-03T22:24:35.790Z,26.40
2022-08-03T22:27:22.462Z,26.30
2022-08-03T22:29:50.119Z,26.30
2022-08-03T22:32:17.008Z,26.30
2022-08-03T22:34:46.600Z,26.30
2022-08-03T22:37:16.566Z,26.20
2022-08-03T22:39:44.552Z,26.20
2022-08-03T22:42:12.097Z,26.10
2022-08-03T22:44:39.699Z,26.00
2022-08-03T22:47:06.952Z,26.00
2022-08-03T22:49:35.576Z,26.00
2022-08-03T22:52:02.580Z,26.00
2022-08-03T22:54:32.064Z,25.90
2022-08-03T22:56:58.987Z,25.90
2022-08-03T22:59:38.866Z,25.90
2022-08-03T23:02:20.133Z,25.90
2022-08-03T23:04:57.442Z,25.80
2022-08-03T23:07:31.723Z,25.70
2022-08-03T23:10:01.603Z,25.70
2022-08-03T23:12:30.302Z,25.70
2022-08-03T23:15:01.401Z,25.70
2022-08-03T23:17:31.146Z,25.70
2022-08-03T23:20:08.150Z,25.60
2022-08-03T23:22:35.453Z,25.60
2022-08-03T23:25:04.592Z,25.50
2022-08-03T23:27:33.103Z,25.40
2022-08-03T23:30:01.692Z,25.40
2022-08-03T23:32:30.488Z,25.40
2022-08-03T23:35:22.924Z,25.40
2022-08-03T23:38:22.330Z,25.40
2022-08-03T23:40:51.333Z,25.30
2022-08-03T23:43:51.420Z,25.30
2022-08-03T23:46:07.615Z,25.30
2022-08-03T23:48:34.395Z,25.30
2022-08-03T23:51:09.996Z,25.20
2022-08-03T23:53:45.095Z,25.20
2022-08-03T23:56:39.875Z,25.20
